Siegerland, Germany

10:00 PM CEST on September 18, 2014 (GMT +0200)
I90578780 | Change Station
CLOSE
Current Station
Personal Weather Station
Location: Driedorf-Heisterberg, Hessen
Elevation: 1913 ft
Nearby Weather Stations

Elev 1913 ft 50.66 °N, 8.16 °E | Updated 11 minutes ago

Clear
Clear
59.5 °F
Feels Like 59.5 °F
N
0.0
Wind Variable Wind from ESE
Gusts 0.0 mph

Today
High -- | Low -- °F
--% Chance of Precip.
Yesterday
High -- | Low -- °F
Precip. -- in
7:07 AM 7:35 PM
Waning Crescent, 25% visible
Pressure 29.92 in
Visibility 3.7 miles
Clouds
Dew Point 58 °F
Humidity 96%
Rainfall 0.03 in
Snow Depth Not available.
UV Not available.
Pollen Not available.
Air Quality Not available.
Flu Activity Not available.
METAR EDGS 181950Z 11005KT 6000 NSC 15/15 Q1013

More Conditions Fewer Conditions

Pressure 29.92 in
Visibility 3.7 miles
Clouds
Dew Point 58 °F
Humidity 96%
Rainfall 0.03 in
Snow Depth Not available.
UV Not available.
Pollen Not available.
Air Quality Not available.
Flu Activity Not available.
METAR EDGS 181950Z 11005KT 6000 NSC 15/15 Q1013

More Conditions Fewer Conditions

10-Day Weather Forecast

Almanac

Astronomy

Sep. 18, 2014 Rise Set
Actual Time 7:07 AM CEST 7:35 PM CEST
Civil Twilight 6:34 AM CEST 8:08 PM CEST
Nautical Twilight 5:55 AM CEST 8:47 PM CEST
Astronomical Twilight 5:14 AM CEST 9:28 PM CEST
Moon 1:19 AM CEST 4:39 PM CEST
Length of Visible Light 13h 33m
Length of Day
12h 27m
Tomorrow will be 3m 47s shorter.
Waning Crescent, 25% of the Moon is Illuminated
Today
Waning Crescent
Sep 24
New
Oct 1
First Quarter
Oct 8
Full
Oct 15
Last Quarter

Today's Extremes

Country Highs Country Lows

Community

WunderPhotos

Upload Photos

1,754,423 photos uploaded!

WunderBlogs® & News

By Dr. Jeff Masters
Director of Meteorology, Weather Underground
By Kari Strenfel
Meteorologist, Weather Underground
By Christopher C. Burt
Weather Historian, Weather Underground
September 18, 2014
September 18, 2014
September 18, 2014

Nearby

Snow Depth

Not available.

Earthquake Activity

City Distance Mag. Time & Date
No recent earthquake activity has been reported nearby.
Minimum magnitude displayed is 2.5.

Coastal Water Temperatures

Place Temperature
No Stations Reporting

Nearby Weather Stations